sensor_id;sensor_type;location;lat;lon;timestamp;P1;durP1;ratioP1;P2;durP2;ratioP2
15398;SDS011;7797;51.428;6.756;2023-02-28T00:00:34;5.10;;;4.20;;
15398;SDS011;7797;51.428;6.756;2023-02-28T00:03:02;6.13;;;4.00;;
15398;SDS011;7797;51.428;6.756;2023-02-28T00:05:29;5.37;;;4.00;;
15398;SDS011;7797;51.428;6.756;2023-02-28T00:07:56;4.87;;;4.37;;
15398;SDS011;7797;51.428;6.756;2023-02-28T00:10:25;4.90;;;4.20;;
15398;SDS011;7797;51.428;6.756;2023-02-28T00:12:55;6.00;;;4.20;;
15398;SDS011;7797;51.428;6.756;2023-02-28T00:15:25;6.40;;;4.30;;
15398;SDS011;7797;51.428;6.756;2023-02-28T00:17:52;6.20;;;4.30;;
15398;SDS011;7797;51.428;6.756;2023-02-28T00:20:20;6.43;;;3.97;;
15398;SDS011;7797;51.428;6.756;2023-02-28T00:22:48;4.80;;;3.90;;
15398;SDS011;7797;51.428;6.756;2023-02-28T00:25:18;5.63;;;3.73;;
15398;SDS011;7797;51.428;6.756;2023-02-28T00:27:46;6.20;;;4.10;;
15398;SDS011;7797;51.428;6.756;2023-02-28T00:30:15;4.30;;;3.90;;
15398;SDS011;7797;51.428;6.756;2023-02-28T00:32:43;4.33;;;3.87;;
15398;SDS011;7797;51.428;6.756;2023-02-28T00:35:10;4.30;;;3.73;;
15398;SDS011;7797;51.428;6.756;2023-02-28T00:37:38;5.87;;;4.37;;
15398;SDS011;7797;51.428;6.756;2023-02-28T00:40:05;4.23;;;3.83;;
15398;SDS011;7797;51.428;6.756;2023-02-28T00:42:33;6.23;;;4.17;;
15398;SDS011;7797;51.428;6.756;2023-02-28T00:45:00;4.20;;;3.80;;
15398;SDS011;7797;51.428;6.756;2023-02-28T00:47:27;4.40;;;4.00;;
15398;SDS011;7797;51.428;6.756;2023-02-28T00:49:54;6.00;;;4.10;;
15398;SDS011;7797;51.428;6.756;2023-02-28T00:52:21;6.43;;;4.07;;
15398;SDS011;7797;51.428;6.756;2023-02-28T00:54:47;6.00;;;3.73;;
15398;SDS011;7797;51.428;6.756;2023-02-28T00:57:14;5.67;;;3.70;;
15398;SDS011;7797;51.428;6.756;2023-02-28T00:59:41;4.23;;;3.87;;
15398;SDS011;7797;51.428;6.756;2023-02-28T01:02:08;6.03;;;3.93;;
15398;SDS011;7797;51.428;6.756;2023-02-28T01:04:34;5.83;;;4.13;;
15398;SDS011;7797;51.428;6.756;2023-02-28T01:07:01;6.03;;;4.03;;
15398;SDS011;7797;51.428;6.756;2023-02-28T01:09:28;4.73;;;4.07;;
15398;SDS011;7797;51.428;6.756;2023-02-28T01:11:55;4.60;;;4.17;;
15398;SDS011;7797;51.428;6.756;2023-02-28T01:14:21;7.27;;;3.77;;
15398;SDS011;7797;51.428;6.756;2023-02-28T01:16:48;4.63;;;3.77;;
15398;SDS011;7797;51.428;6.756;2023-02-28T01:19:15;3.70;;;3.40;;
15398;SDS011;7797;51.428;6.756;2023-02-28T01:21:42;5.77;;;3.80;;
15398;SDS011;7797;51.428;6.756;2023-02-28T01:24:09;6.40;;;3.80;;
15398;SDS011;7797;51.428;6.756;2023-02-28T01:26:35;8.17;;;3.50;;
15398;SDS011;7797;51.428;6.756;2023-02-28T01:29:02;3.77;;;3.43;;
15398;SDS011;7797;51.428;6.756;2023-02-28T01:31:29;5.40;;;3.30;;
15398;SDS011;7797;51.428;6.756;2023-02-28T01:33:56;4.50;;;3.37;;
15398;SDS011;7797;51.428;6.756;2023-02-28T01:36:24;4.50;;;3.60;;
15398;SDS011;7797;51.428;6.756;2023-02-28T01:38:51;3.50;;;3.20;;
15398;SDS011;7797;51.428;6.756;2023-02-28T01:41:20;5.30;;;3.13;;
15398;SDS011;7797;51.428;6.756;2023-02-28T01:43:56;4.53;;;3.20;;
15398;SDS011;7797;51.428;6.756;2023-02-28T01:46:23;3.87;;;3.30;;
15398;SDS011;7797;51.428;6.756;2023-02-28T01:48:58;3.80;;;3.00;;
15398;SDS011;7797;51.428;6.756;2023-02-28T01:51:30;3.67;;;2.93;;
15398;SDS011;7797;51.428;6.756;2023-02-28T01:54:05;3.30;;;3.00;;
15398;SDS011;7797;51.428;6.756;2023-02-28T01:56:41;4.93;;;2.97;;
15398;SDS011;7797;51.428;6.756;2023-02-28T01:59:12;3.63;;;3.00;;
15398;SDS011;7797;51.428;6.756;2023-02-28T02:01:41;4.60;;;3.50;;
15398;SDS011;7797;51.428;6.756;2023-02-28T02:04:08;4.40;;;3.23;;
15398;SDS011;7797;51.428;6.756;2023-02-28T02:06:36;4.93;;;3.80;;
15398;SDS011;7797;51.428;6.756;2023-02-28T02:09:04;5.47;;;3.83;;
15398;SDS011;7797;51.428;6.756;2023-02-28T02:11:32;5.93;;;3.93;;
15398;SDS011;7797;51.428;6.756;2023-02-28T02:14:04;6.33;;;3.70;;
15398;SDS011;7797;51.428;6.756;2023-02-28T02:27:37;4.23;;;3.40;;
15398;SDS011;7797;51.428;6.756;2023-02-28T02:30:33;3.97;;;3.07;;
15398;SDS011;7797;51.428;6.756;2023-02-28T02:33:28;4.60;;;3.30;;
15398;SDS011;7797;51.428;6.756;2023-02-28T02:46:38;4.57;;;3.00;;
15398;SDS011;7797;51.428;6.756;2023-02-28T02:49:08;3.23;;;2.90;;
15398;SDS011;7797;51.428;6.756;2023-02-28T02:51:37;4.10;;;2.97;;
15398;SDS011;7797;51.428;6.756;2023-02-28T02:54:06;3.20;;;2.80;;
15398;SDS011;7797;51.428;6.756;2023-02-28T02:56:35;3.07;;;2.87;;
15398;SDS011;7797;51.428;6.756;2023-02-28T02:59:03;5.03;;;2.83;;
15398;SDS011;7797;51.428;6.756;2023-02-28T03:01:33;2.77;;;2.53;;
15398;SDS011;7797;51.428;6.756;2023-02-28T03:04:01;4.03;;;2.97;;
15398;SDS011;7797;51.428;6.756;2023-02-28T03:06:30;4.63;;;2.60;;
15398;SDS011;7797;51.428;6.756;2023-02-28T03:08:57;3.30;;;2.73;;
15398;SDS011;7797;51.428;6.756;2023-02-28T03:11:23;5.90;;;2.97;;
15398;SDS011;7797;51.428;6.756;2023-02-28T03:27:29;6.50;;;3.43;;
15398;SDS011;7797;51.428;6.756;2023-02-28T03:30:04;3.47;;;2.90;;
15398;SDS011;7797;51.428;6.756;2023-02-28T03:35:17;4.27;;;3.40;;
15398;SDS011;7797;51.428;6.756;2023-02-28T03:38:00;4.67;;;3.00;;
15398;SDS011;7797;51.428;6.756;2023-02-28T03:40:32;4.83;;;2.97;;
15398;SDS011;7797;51.428;6.756;2023-02-28T03:43:02;4.07;;;3.13;;
15398;SDS011;7797;51.428;6.756;2023-02-28T03:45:32;4.90;;;3.63;;
15398;SDS011;7797;51.428;6.756;2023-02-28T03:48:37;4.23;;;3.23;;
15398;SDS011;7797;51.428;6.756;2023-02-28T03:51:02;3.83;;;3.30;;
15398;SDS011;7797;51.428;6.756;2023-02-28T03:53:37;4.93;;;3.10;;
15398;SDS011;7797;51.428;6.756;2023-02-28T03:56:11;4.53;;;3.53;;
15398;SDS011;7797;51.428;6.756;2023-02-28T04:01:59;4.87;;;3.40;;
15398;SDS011;7797;51.428;6.756;2023-02-28T04:04:26;5.77;;;3.00;;
15398;SDS011;7797;51.428;6.756;2023-02-28T04:06:53;8.67;;;3.57;;
15398;SDS011;7797;51.428;6.756;2023-02-28T04:09:36;5.73;;;3.40;;
15398;SDS011;7797;51.428;6.756;2023-02-28T04:12:03;6.53;;;3.20;;
15398;SDS011;7797;51.428;6.756;2023-02-28T04:14:30;5.37;;;3.40;;
15398;SDS011;7797;51.428;6.756;2023-02-28T04:16:56;4.07;;;3.00;;
15398;SDS011;7797;51.428;6.756;2023-02-28T04:19:23;7.03;;;3.40;;
15398;SDS011;7797;51.428;6.756;2023-02-28T04:21:50;6.20;;;3.43;;
15398;SDS011;7797;51.428;6.756;2023-02-28T04:24:26;4.10;;;3.27;;
15398;SDS011;7797;51.428;6.756;2023-02-28T04:26:55;3.87;;;2.70;;
15398;SDS011;7797;51.428;6.756;2023-02-28T04:29:24;5.63;;;3.10;;
15398;SDS011;7797;51.428;6.756;2023-02-28T04:31:52;6.30;;;3.10;;
15398;SDS011;7797;51.428;6.756;2023-02-28T04:34:20;4.53;;;3.10;;
15398;SDS011;7797;51.428;6.756;2023-02-28T04:36:47;7.43;;;3.23;;
15398;SDS011;7797;51.428;6.756;2023-02-28T04:39:36;4.73;;;2.83;;
15398;SDS011;7797;51.428;6.756;2023-02-28T04:42:03;3.77;;;3.17;;
15398;SDS011;7797;51.428;6.756;2023-02-28T04:44:30;5.67;;;2.90;;
15398;SDS011;7797;51.428;6.756;2023-02-28T04:46:56;3.67;;;3.17;;
15398;SDS011;7797;51.428;6.756;2023-02-28T04:49:23;3.87;;;3.23;;
15398;SDS011;7797;51.428;6.756;2023-02-28T04:51:50;8.57;;;3.70;;
15398;SDS011;7797;51.428;6.756;2023-02-28T04:54:17;5.93;;;3.20;;
15398;SDS011;7797;51.428;6.756;2023-02-28T04:56:50;3.47;;;2.80;;
15398;SDS011;7797;51.428;6.756;2023-02-28T04:59:17;3.80;;;3.13;;
15398;SDS011;7797;51.428;6.756;2023-02-28T05:01:47;5.23;;;3.43;;
15398;SDS011;7797;51.428;6.756;2023-02-28T05:04:14;4.33;;;3.07;;
15398;SDS011;7797;51.428;6.756;2023-02-28T05:06:42;6.40;;;3.10;;
15398;SDS011;7797;51.428;6.756;2023-02-28T05:09:08;4.13;;;3.00;;
15398;SDS011;7797;51.428;6.756;2023-02-28T05:11:37;4.60;;;2.87;;
15398;SDS011;7797;51.428;6.756;2023-02-28T05:14:09;4.23;;;3.20;;
15398;SDS011;7797;51.428;6.756;2023-02-28T05:16:38;6.07;;;3.33;;
15398;SDS011;7797;51.428;6.756;2023-02-28T05:19:11;4.20;;;3.07;;
15398;SDS011;7797;51.428;6.756;2023-02-28T05:21:38;6.67;;;3.00;;
15398;SDS011;7797;51.428;6.756;2023-02-28T05:24:09;5.97;;;3.20;;
15398;SDS011;7797;51.428;6.756;2023-02-28T05:26:38;3.73;;;3.00;;
15398;SDS011;7797;51.428;6.756;2023-02-28T05:29:06;5.47;;;3.40;;
15398;SDS011;7797;51.428;6.756;2023-02-28T05:31:33;7.17;;;3.20;;
15398;SDS011;7797;51.428;6.756;2023-02-28T05:34:00;3.80;;;2.90;;
15398;SDS011;7797;51.428;6.756;2023-02-28T05:36:27;4.63;;;3.10;;
15398;SDS011;7797;51.428;6.756;2023-02-28T05:38:54;3.83;;;3.43;;
15398;SDS011;7797;51.428;6.756;2023-02-28T05:41:21;6.40;;;3.30;;
15398;SDS011;7797;51.428;6.756;2023-02-28T05:43:47;7.43;;;3.37;;
15398;SDS011;7797;51.428;6.756;2023-02-28T05:46:15;4.97;;;2.90;;
15398;SDS011;7797;51.428;6.756;2023-02-28T05:48:42;5.53;;;3.43;;
15398;SDS011;7797;51.428;6.756;2023-02-28T05:51:13;5.57;;;3.30;;
15398;SDS011;7797;51.428;6.756;2023-02-28T05:53:40;3.33;;;2.97;;
15398;SDS011;7797;51.428;6.756;2023-02-28T05:56:06;4.57;;;3.23;;
15398;SDS011;7797;51.428;6.756;2023-02-28T05:58:33;2.97;;;2.73;;
15398;SDS011;7797;51.428;6.756;2023-02-28T06:01:18;5.73;;;2.90;;
15398;SDS011;7797;51.428;6.756;2023-02-28T06:03:46;4.03;;;2.80;;
15398;SDS011;7797;51.428;6.756;2023-02-28T06:06:12;5.03;;;3.03;;
15398;SDS011;7797;51.428;6.756;2023-02-28T06:08:39;4.03;;;2.90;;
15398;SDS011;7797;51.428;6.756;2023-02-28T06:11:06;3.50;;;2.90;;
15398;SDS011;7797;51.428;6.756;2023-02-28T06:13:33;5.50;;;2.80;;
15398;SDS011;7797;51.428;6.756;2023-02-28T06:16:02;3.73;;;2.83;;
15398;SDS011;7797;51.428;6.756;2023-02-28T06:18:29;4.27;;;3.00;;
15398;SDS011;7797;51.428;6.756;2023-02-28T06:20:56;4.33;;;2.87;;
15398;SDS011;7797;51.428;6.756;2023-02-28T06:23:22;3.23;;;2.90;;
15398;SDS011;7797;51.428;6.756;2023-02-28T06:25:49;3.80;;;2.60;;
15398;SDS011;7797;51.428;6.756;2023-02-28T06:28:16;3.63;;;2.80;;
15398;SDS011;7797;51.428;6.756;2023-02-28T06:30:42;3.23;;;2.67;;
15398;SDS011;7797;51.428;6.756;2023-02-28T06:33:11;5.53;;;2.73;;
15398;SDS011;7797;51.428;6.756;2023-02-28T06:35:38;2.70;;;2.50;;
15398;SDS011;7797;51.428;6.756;2023-02-28T06:38:05;5.30;;;2.70;;
15398;SDS011;7797;51.428;6.756;2023-02-28T06:40:32;2.90;;;2.70;;
15398;SDS011;7797;51.428;6.756;2023-02-28T06:43:01;7.20;;;2.90;;
15398;SDS011;7797;51.428;6.756;2023-02-28T06:45:28;5.00;;;3.43;;
15398;SDS011;7797;51.428;6.756;2023-02-28T06:47:55;3.60;;;2.60;;
15398;SDS011;7797;51.428;6.756;2023-02-28T06:50:21;4.70;;;2.60;;
15398;SDS011;7797;51.428;6.756;2023-02-28T06:52:48;6.97;;;2.50;;
15398;SDS011;7797;51.428;6.756;2023-02-28T06:55:20;5.10;;;2.93;;
15398;SDS011;7797;51.428;6.756;2023-02-28T06:57:46;3.87;;;3.07;;
15398;SDS011;7797;51.428;6.756;2023-02-28T07:00:19;4.23;;;2.97;;
15398;SDS011;7797;51.428;6.756;2023-02-28T07:02:46;5.10;;;2.50;;
15398;SDS011;7797;51.428;6.756;2023-02-28T07:05:13;3.10;;;2.77;;
15398;SDS011;7797;51.428;6.756;2023-02-28T07:07:40;2.43;;;2.23;;
15398;SDS011;7797;51.428;6.756;2023-02-28T07:10:15;5.77;;;2.83;;
15398;SDS011;7797;51.428;6.756;2023-02-28T07:12:45;3.90;;;2.90;;
15398;SDS011;7797;51.428;6.756;2023-02-28T07:15:17;4.90;;;2.90;;
15398;SDS011;7797;51.428;6.756;2023-02-28T07:17:43;3.57;;;2.53;;
15398;SDS011;7797;51.428;6.756;2023-02-28T07:20:10;2.97;;;2.50;;
15398;SDS011;7797;51.428;6.756;2023-02-28T07:22:37;7.53;;;2.73;;
15398;SDS011;7797;51.428;6.756;2023-02-28T07:25:05;6.73;;;2.90;;
15398;SDS011;7797;51.428;6.756;2023-02-28T07:27:32;6.17;;;2.90;;
15398;SDS011;7797;51.428;6.756;2023-02-28T07:30:00;5.77;;;2.77;;
15398;SDS011;7797;51.428;6.756;2023-02-28T07:32:30;3.23;;;2.50;;
15398;SDS011;7797;51.428;6.756;2023-02-28T07:34:56;2.80;;;2.40;;
15398;SDS011;7797;51.428;6.756;2023-02-28T07:37:23;7.10;;;2.67;;
15398;SDS011;7797;51.428;6.756;2023-02-28T07:39:50;3.40;;;2.80;;
15398;SDS011;7797;51.428;6.756;2023-02-28T07:42:17;3.67;;;2.67;;
15398;SDS011;7797;51.428;6.756;2023-02-28T07:44:44;4.07;;;2.90;;
15398;SDS011;7797;51.428;6.756;2023-02-28T07:47:11;5.60;;;2.90;;
15398;SDS011;7797;51.428;6.756;2023-02-28T07:49:38;3.60;;;2.93;;
15398;SDS011;7797;51.428;6.756;2023-02-28T07:52:10;5.53;;;2.77;;
15398;SDS011;7797;51.428;6.756;2023-02-28T07:54:37;3.30;;;2.60;;
15398;SDS011;7797;51.428;6.756;2023-02-28T07:57:04;2.70;;;2.47;;
15398;SDS011;7797;51.428;6.756;2023-02-28T07:59:30;3.03;;;2.40;;
15398;SDS011;7797;51.428;6.756;2023-02-28T08:01:57;4.23;;;2.63;;
15398;SDS011;7797;51.428;6.756;2023-02-28T08:04:25;5.13;;;2.80;;
15398;SDS011;7797;51.428;6.756;2023-02-28T08:06:52;3.93;;;2.73;;
15398;SDS011;7797;51.428;6.756;2023-02-28T08:09:19;5.00;;;3.00;;
15398;SDS011;7797;51.428;6.756;2023-02-28T08:11:46;4.80;;;2.93;;
15398;SDS011;7797;51.428;6.756;2023-02-28T08:14:13;3.40;;;2.53;;
15398;SDS011;7797;51.428;6.756;2023-02-28T08:16:40;3.20;;;2.70;;
15398;SDS011;7797;51.428;6.756;2023-02-28T08:19:06;4.67;;;4.23;;
15398;SDS011;7797;51.428;6.756;2023-02-28T08:21:35;3.53;;;3.03;;
15398;SDS011;7797;51.428;6.756;2023-02-28T08:24:01;3.30;;;2.90;;
15398;SDS011;7797;51.428;6.756;2023-02-28T08:26:28;3.87;;;2.67;;
15398;SDS011;7797;51.428;6.756;2023-02-28T08:28:55;3.87;;;2.80;;
15398;SDS011;7797;51.428;6.756;2023-02-28T08:31:23;4.20;;;2.90;;
15398;SDS011;7797;51.428;6.756;2023-02-28T08:33:50;2.90;;;2.70;;
15398;SDS011;7797;51.428;6.756;2023-02-28T08:36:19;3.60;;;2.70;;
15398;SDS011;7797;51.428;6.756;2023-02-28T08:38:46;4.10;;;2.90;;
15398;SDS011;7797;51.428;6.756;2023-02-28T08:41:12;4.13;;;2.63;;
15398;SDS011;7797;51.428;6.756;2023-02-28T08:43:39;2.70;;;2.50;;
15398;SDS011;7797;51.428;6.756;2023-02-28T08:46:06;2.57;;;2.37;;
15398;SDS011;7797;51.428;6.756;2023-02-28T08:48:34;3.27;;;2.60;;
15398;SDS011;7797;51.428;6.756;2023-02-28T08:51:11;3.03;;;2.50;;
15398;SDS011;7797;51.428;6.756;2023-02-28T08:53:48;2.93;;;2.60;;
15398;SDS011;7797;51.428;6.756;2023-02-28T08:56:17;2.57;;;2.33;;
15398;SDS011;7797;51.428;6.756;2023-02-28T08:58:44;2.67;;;2.30;;
15398;SDS011;7797;51.428;6.756;2023-02-28T09:01:13;3.80;;;2.43;;
15398;SDS011;7797;51.428;6.756;2023-02-28T09:03:42;4.80;;;2.60;;
15398;SDS011;7797;51.428;6.756;2023-02-28T09:06:09;4.37;;;2.80;;
15398;SDS011;7797;51.428;6.756;2023-02-28T09:08:37;3.03;;;2.70;;
15398;SDS011;7797;51.428;6.756;2023-02-28T09:11:10;2.93;;;2.50;;
15398;SDS011;7797;51.428;6.756;2023-02-28T09:13:40;2.77;;;2.40;;
15398;SDS011;7797;51.428;6.756;2023-02-28T09:16:08;4.20;;;2.83;;
15398;SDS011;7797;51.428;6.756;2023-02-28T09:18:37;2.57;;;2.30;;
15398;SDS011;7797;51.428;6.756;2023-02-28T09:21:06;2.40;;;2.20;;
15398;SDS011;7797;51.428;6.756;2023-02-28T09:23:46;3.20;;;2.90;;
15398;SDS011;7797;51.428;6.756;2023-02-28T09:26:15;3.10;;;2.23;;
15398;SDS011;7797;51.428;6.756;2023-02-28T09:28:49;2.60;;;2.40;;
15398;SDS011;7797;51.428;6.756;2023-02-28T09:31:17;2.40;;;2.20;;
15398;SDS011;7797;51.428;6.756;2023-02-28T09:33:50;3.20;;;2.37;;
15398;SDS011;7797;51.428;6.756;2023-02-28T09:36:18;3.07;;;2.10;;
15398;SDS011;7797;51.428;6.756;2023-02-28T09:38:46;3.27;;;2.20;;
15398;SDS011;7797;51.428;6.756;2023-02-28T09:41:27;2.40;;;2.17;;
15398;SDS011;7797;51.428;6.756;2023-02-28T09:44:05;2.23;;;2.03;;
15398;SDS011;7797;51.428;6.756;2023-02-28T09:46:38;4.03;;;2.30;;
15398;SDS011;7797;51.428;6.756;2023-02-28T09:49:10;4.97;;;2.30;;
15398;SDS011;7797;51.428;6.756;2023-02-28T09:54:14;2.40;;;2.20;;
15398;SDS011;7797;51.428;6.756;2023-02-28T09:57:08;4.33;;;2.17;;
15398;SDS011;7797;51.428;6.756;2023-02-28T09:59:48;3.00;;;2.20;;
15398;SDS011;7797;51.428;6.756;2023-02-28T10:02:39;3.03;;;2.40;;
15398;SDS011;7797;51.428;6.756;2023-02-28T10:05:14;2.20;;;2.10;;
15398;SDS011;7797;51.428;6.756;2023-02-28T10:13:11;2.97;;;2.50;;
15398;SDS011;7797;51.428;6.756;2023-02-28T10:15:41;2.43;;;2.23;;
15398;SDS011;7797;51.428;6.756;2023-02-28T10:18:11;2.27;;;1.90;;
15398;SDS011;7797;51.428;6.756;2023-02-28T10:20:41;3.87;;;2.10;;
15398;SDS011;7797;51.428;6.756;2023-02-28T10:23:17;4.83;;;1.97;;
15398;SDS011;7797;51.428;6.756;2023-02-28T10:25:53;2.17;;;2.00;;
15398;SDS011;7797;51.428;6.756;2023-02-28T10:28:21;2.20;;;2.00;;
15398;SDS011;7797;51.428;6.756;2023-02-28T10:30:49;3.00;;;2.00;;
15398;SDS011;7797;51.428;6.756;2023-02-28T10:33:25;1.70;;;1.60;;
15398;SDS011;7797;51.428;6.756;2023-02-28T10:35:56;1.90;;;1.80;;
15398;SDS011;7797;51.428;6.756;2023-02-28T10:38:25;2.20;;;2.00;;
15398;SDS011;7797;51.428;6.756;2023-02-28T10:41:15;2.53;;;2.30;;
15398;SDS011;7797;51.428;6.756;2023-02-28T10:43:46;1.93;;;1.83;;
15398;SDS011;7797;51.428;6.756;2023-02-28T10:46:15;1.93;;;1.80;;
15398;SDS011;7797;51.428;6.756;2023-02-28T10:49:03;2.27;;;1.97;;
15398;SDS011;7797;51.428;6.756;2023-02-28T10:51:36;1.97;;;1.80;;
15398;SDS011;7797;51.428;6.756;2023-02-28T10:54:04;2.20;;;2.10;;
15398;SDS011;7797;51.428;6.756;2023-02-28T10:56:32;1.93;;;1.83;;
15398;SDS011;7797;51.428;6.756;2023-02-28T10:59:01;2.43;;;1.80;;
15398;SDS011;7797;51.428;6.756;2023-02-28T11:01:42;3.73;;;1.83;;
15398;SDS011;7797;51.428;6.756;2023-02-28T11:07:06;2.80;;;2.23;;
15398;SDS011;7797;51.428;6.756;2023-02-28T11:09:46;3.07;;;2.00;;
15398;SDS011;7797;51.428;6.756;2023-02-28T11:14:52;2.77;;;2.20;;
15398;SDS011;7797;51.428;6.756;2023-02-28T11:17:24;2.07;;;1.97;;
15398;SDS011;7797;51.428;6.756;2023-02-28T11:19:54;3.97;;;1.83;;
15398;SDS011;7797;51.428;6.756;2023-02-28T11:22:24;3.70;;;1.60;;
15398;SDS011;7797;51.428;6.756;2023-02-28T11:24:59;1.87;;;1.77;;
15398;SDS011;7797;51.428;6.756;2023-02-28T11:30:04;3.23;;;1.90;;
15398;SDS011;7797;51.428;6.756;2023-02-28T11:32:32;3.63;;;1.87;;
15398;SDS011;7797;51.428;6.756;2023-02-28T11:35:23;3.63;;;2.30;;
15398;SDS011;7797;51.428;6.756;2023-02-28T11:37:51;2.43;;;1.83;;
15398;SDS011;7797;51.428;6.756;2023-02-28T11:40:27;2.23;;;1.80;;
15398;SDS011;7797;51.428;6.756;2023-02-28T11:43:06;2.37;;;2.00;;
15398;SDS011;7797;51.428;6.756;2023-02-28T11:51:34;1.80;;;1.70;;
15398;SDS011;7797;51.428;6.756;2023-02-28T12:05:34;1.80;;;1.70;;
15398;SDS011;7797;51.428;6.756;2023-02-28T12:08:49;2.53;;;1.90;;
15398;SDS011;7797;51.428;6.756;2023-02-28T12:13:46;2.20;;;2.00;;
15398;SDS011;7797;51.428;6.756;2023-02-28T12:26:54;1.80;;;1.70;;
15398;SDS011;7797;51.428;6.756;2023-02-28T12:29:22;2.23;;;2.03;;
15398;SDS011;7797;51.428;6.756;2023-02-28T12:34:36;2.10;;;1.90;;
15398;SDS011;7797;51.428;6.756;2023-02-28T12:37:14;2.30;;;2.10;;
15398;SDS011;7797;51.428;6.756;2023-02-28T12:39:45;2.90;;;2.10;;
15398;SDS011;7797;51.428;6.756;2023-02-28T12:45:00;4.87;;;3.80;;
15398;SDS011;7797;51.428;6.756;2023-02-28T12:47:28;2.20;;;1.90;;
15398;SDS011;7797;51.428;6.756;2023-02-28T12:50:03;2.07;;;1.97;;
15398;SDS011;7797;51.428;6.756;2023-02-28T13:00:29;3.10;;;2.20;;
15398;SDS011;7797;51.428;6.756;2023-02-28T13:06:40;2.73;;;1.97;;
15398;SDS011;7797;51.428;6.756;2023-02-28T13:08:55;1.90;;;1.80;;
15398;SDS011;7797;51.428;6.756;2023-02-28T13:11:28;2.03;;;1.93;;
15398;SDS011;7797;51.428;6.756;2023-02-28T13:13:57;2.10;;;2.00;;
15398;SDS011;7797;51.428;6.756;2023-02-28T13:16:51;1.90;;;1.80;;
15398;SDS011;7797;51.428;6.756;2023-02-28T13:19:22;2.20;;;2.10;;
15398;SDS011;7797;51.428;6.756;2023-02-28T13:21:56;2.40;;;2.13;;
15398;SDS011;7797;51.428;6.756;2023-02-28T13:24:41;3.30;;;2.30;;
15398;SDS011;7797;51.428;6.756;2023-02-28T13:29:44;2.53;;;2.40;;
15398;SDS011;7797;51.428;6.756;2023-02-28T13:34:42;2.67;;;2.10;;
15398;SDS011;7797;51.428;6.756;2023-02-28T13:39:49;3.30;;;2.50;;
15398;SDS011;7797;51.428;6.756;2023-02-28T13:52:55;3.00;;;2.40;;
15398;SDS011;7797;51.428;6.756;2023-02-28T13:58:55;2.73;;;2.37;;
15398;SDS011;7797;51.428;6.756;2023-02-28T14:06:58;2.50;;;2.30;;
15398;SDS011;7797;51.428;6.756;2023-02-28T14:11:52;2.77;;;2.60;;
15398;SDS011;7797;51.428;6.756;2023-02-28T14:17:05;3.57;;;3.00;;
15398;SDS011;7797;51.428;6.756;2023-02-28T14:19:55;2.90;;;2.70;;
15398;SDS011;7797;51.428;6.756;2023-02-28T14:25:34;3.77;;;3.10;;
15398;SDS011;7797;51.428;6.756;2023-02-28T14:31:09;2.92;;;2.65;;
15398;SDS011;7797;51.428;6.756;2023-02-28T14:33:44;2.47;;;2.27;;
15398;SDS011;7797;51.428;6.756;2023-02-28T14:39:07;3.03;;;2.77;;
15398;SDS011;7797;51.428;6.756;2023-02-28T14:41:38;2.77;;;2.57;;
15398;SDS011;7797;51.428;6.756;2023-02-28T14:44:20;3.07;;;2.57;;
15398;SDS011;7797;51.428;6.756;2023-02-28T14:46:54;2.50;;;2.30;;
15398;SDS011;7797;51.428;6.756;2023-02-28T14:49:36;2.80;;;2.60;;
15398;SDS011;7797;51.428;6.756;2023-02-28T14:52:12;2.80;;;2.50;;
15398;SDS011;7797;51.428;6.756;2023-02-28T14:54:41;2.53;;;2.40;;
15398;SDS011;7797;51.428;6.756;2023-02-28T14:57:24;2.77;;;2.57;;
15398;SDS011;7797;51.428;6.756;2023-02-28T15:02:41;2.60;;;2.50;;
15398;SDS011;7797;51.428;6.756;2023-02-28T15:07:44;3.57;;;2.77;;
15398;SDS011;7797;51.428;6.756;2023-02-28T15:10:18;5.20;;;2.90;;
15398;SDS011;7797;51.428;6.756;2023-02-28T15:12:54;2.77;;;2.60;;
15398;SDS011;7797;51.428;6.756;2023-02-28T15:15:26;4.40;;;3.40;;
15398;SDS011;7797;51.428;6.756;2023-02-28T15:18:15;2.73;;;2.57;;
15398;SDS011;7797;51.428;6.756;2023-02-28T15:20:52;3.43;;;2.50;;
15398;SDS011;7797;51.428;6.756;2023-02-28T15:23:24;2.57;;;2.37;;
15398;SDS011;7797;51.428;6.756;2023-02-28T15:25:51;2.43;;;2.23;;
15398;SDS011;7797;51.428;6.756;2023-02-28T15:28:19;3.30;;;2.40;;
15398;SDS011;7797;51.428;6.756;2023-02-28T15:30:51;3.73;;;3.00;;
15398;SDS011;7797;51.428;6.756;2023-02-28T15:33:29;3.03;;;2.70;;
15398;SDS011;7797;51.428;6.756;2023-02-28T15:36:11;2.80;;;2.60;;
15398;SDS011;7797;51.428;6.756;2023-02-28T15:38:44;3.20;;;2.90;;
15398;SDS011;7797;51.428;6.756;2023-02-28T15:41:21;3.23;;;2.60;;
15398;SDS011;7797;51.428;6.756;2023-02-28T15:47:16;2.90;;;2.70;;
15398;SDS011;7797;51.428;6.756;2023-02-28T15:49:49;3.20;;;2.80;;
15398;SDS011;7797;51.428;6.756;2023-02-28T15:52:34;2.53;;;2.43;;
15398;SDS011;7797;51.428;6.756;2023-02-28T15:55:11;2.80;;;2.60;;
15398;SDS011;7797;51.428;6.756;2023-02-28T15:57:42;3.10;;;2.90;;
15398;SDS011;7797;51.428;6.756;2023-02-28T16:00:16;3.40;;;2.80;;
15398;SDS011;7797;51.428;6.756;2023-02-28T16:02:46;3.07;;;2.70;;
15398;SDS011;7797;51.428;6.756;2023-02-28T16:05:17;2.93;;;2.73;;
15398;SDS011;7797;51.428;6.756;2023-02-28T16:08:06;2.83;;;2.43;;
15398;SDS011;7797;51.428;6.756;2023-02-28T16:10:39;3.00;;;2.70;;
15398;SDS011;7797;51.428;6.756;2023-02-28T16:13:08;2.90;;;2.70;;
15398;SDS011;7797;51.428;6.756;2023-02-28T16:15:38;4.83;;;3.03;;
15398;SDS011;7797;51.428;6.756;2023-02-28T16:18:11;3.33;;;3.03;;
15398;SDS011;7797;51.428;6.756;2023-02-28T16:20:44;3.27;;;2.97;;
15398;SDS011;7797;51.428;6.756;2023-02-28T16:23:10;3.17;;;2.50;;
15398;SDS011;7797;51.428;6.756;2023-02-28T16:25:38;2.67;;;2.47;;
15398;SDS011;7797;51.428;6.756;2023-02-28T16:28:18;3.00;;;2.63;;
15398;SDS011;7797;51.428;6.756;2023-02-28T16:30:47;2.97;;;2.67;;
15398;SDS011;7797;51.428;6.756;2023-02-28T16:33:14;3.30;;;3.00;;
15398;SDS011;7797;51.428;6.756;2023-02-28T16:35:41;3.67;;;2.70;;
15398;SDS011;7797;51.428;6.756;2023-02-28T16:38:08;3.93;;;3.03;;
15398;SDS011;7797;51.428;6.756;2023-02-28T16:40:37;3.37;;;2.83;;
15398;SDS011;7797;51.428;6.756;2023-02-28T16:43:07;3.60;;;3.00;;
15398;SDS011;7797;51.428;6.756;2023-02-28T16:45:38;4.20;;;3.60;;
15398;SDS011;7797;51.428;6.756;2023-02-28T16:48:07;5.27;;;4.10;;
15398;SDS011;7797;51.428;6.756;2023-02-28T16:50:39;5.17;;;3.00;;
15398;SDS011;7797;51.428;6.756;2023-02-28T16:53:06;3.37;;;3.17;;
15398;SDS011;7797;51.428;6.756;2023-02-28T16:55:32;3.00;;;2.80;;
15398;SDS011;7797;51.428;6.756;2023-02-28T16:58:01;5.17;;;3.27;;
15398;SDS011;7797;51.428;6.756;2023-02-28T17:00:29;4.00;;;2.77;;
15398;SDS011;7797;51.428;6.756;2023-02-28T17:02:57;5.30;;;3.17;;
15398;SDS011;7797;51.428;6.756;2023-02-28T17:05:25;4.97;;;3.00;;
15398;SDS011;7797;51.428;6.756;2023-02-28T17:07:53;3.30;;;2.95;;
15398;SDS011;7797;51.428;6.756;2023-02-28T17:10:21;3.80;;;3.20;;
15398;SDS011;7797;51.428;6.756;2023-02-28T17:12:49;3.93;;;3.27;;
15398;SDS011;7797;51.428;6.756;2023-02-28T17:15:17;7.70;;;3.37;;
15398;SDS011;7797;51.428;6.756;2023-02-28T17:17:47;3.50;;;3.20;;
15398;SDS011;7797;51.428;6.756;2023-02-28T17:20:16;3.57;;;2.83;;
15398;SDS011;7797;51.428;6.756;2023-02-28T17:22:44;3.43;;;2.90;;
15398;SDS011;7797;51.428;6.756;2023-02-28T17:25:13;3.80;;;3.27;;
15398;SDS011;7797;51.428;6.756;2023-02-28T17:27:54;2.90;;;2.70;;
15398;SDS011;7797;51.428;6.756;2023-02-28T17:30:23;2.90;;;2.63;;
15398;SDS011;7797;51.428;6.756;2023-02-28T17:32:53;3.67;;;3.10;;
15398;SDS011;7797;51.428;6.756;2023-02-28T17:35:22;2.93;;;2.73;;
15398;SDS011;7797;51.428;6.756;2023-02-28T17:37:49;5.17;;;2.93;;
15398;SDS011;7797;51.428;6.756;2023-02-28T17:40:17;4.43;;;3.17;;
15398;SDS011;7797;51.428;6.756;2023-02-28T17:42:45;3.77;;;2.90;;
15398;SDS011;7797;51.428;6.756;2023-02-28T17:45:13;3.50;;;3.20;;
15398;SDS011;7797;51.428;6.756;2023-02-28T17:47:40;7.07;;;3.30;;
15398;SDS011;7797;51.428;6.756;2023-02-28T17:50:12;3.53;;;3.10;;
15398;SDS011;7797;51.428;6.756;2023-02-28T17:52:41;3.58;;;3.15;;
15398;SDS011;7797;51.428;6.756;2023-02-28T17:55:08;3.43;;;3.10;;